Monmouth, Maine
Current Conditions -  °F | °C
As of 5:28 AM on Saturday 01 Nov 2014 (Local Time) from KAUG Reporting Station
Overcast Overcast  
Wind Chill: 33°   Ceiling: 1400
Heat Index: 41°   Visibility: 10mi
Dew Point: 35°   Wind: 14mph
Humidity: 79%   Direction: 10°N
Pressure: 29.99"   Gusts: NA
Location:  44.24°N, 70.04°W
Report Text: KAUG 010928Z AUTO 01012KT 10SM OVC014 05/02 A2999 RMK AO2 T00500017
Loading
Personal Weather Stations






























Interactive Weather Map
Tropical Storm Tracking
New forecast layout! Learn more

10-Day Weather Forecast

Advertisements
Track Severe Weather on mobile